sensor_id;sensor_type;location;lat;lon;timestamp;P1;durP1;ratioP1;P2;durP2;ratioP2
16967;SDS011;64862;54.398;10.126;2023-05-24T01:56:17;46.05;;;7.57;;
16967;SDS011;64862;54.398;10.126;2023-05-24T02:06:22;54.75;;;7.72;;
16967;SDS011;64862;54.398;10.126;2023-05-24T02:16:26;49.25;;;8.27;;
16967;SDS011;64862;54.398;10.126;2023-05-24T02:26:29;40.10;;;8.23;;
16967;SDS011;64862;54.398;10.126;2023-05-24T02:36:35;50.03;;;7.47;;
16967;SDS011;64862;54.398;10.126;2023-05-24T02:46:37;53.40;;;8.20;;
16967;SDS011;64862;54.398;10.126;2023-05-24T02:56:41;58.20;;;8.50;;
16967;SDS011;64862;54.398;10.126;2023-05-24T03:06:43;50.53;;;7.72;;
16967;SDS011;64862;54.398;10.126;2023-05-24T03:16:48;50.67;;;8.48;;
16967;SDS011;64862;54.398;10.126;2023-05-24T03:26:51;49.60;;;7.93;;
16967;SDS011;64862;54.398;10.126;2023-05-24T03:36:55;44.92;;;7.95;;
16967;SDS011;64862;54.398;10.126;2023-05-24T03:46:57;54.55;;;8.35;;
16967;SDS011;64862;54.398;10.126;2023-05-24T03:57:02;55.75;;;8.05;;
16967;SDS011;64862;54.398;10.126;2023-05-24T04:07:05;59.60;;;8.70;;
16967;SDS011;64862;54.398;10.126;2023-05-24T04:17:12;53.25;;;8.43;;
16967;SDS011;64862;54.398;10.126;2023-05-24T04:27:17;47.28;;;8.10;;
16967;SDS011;64862;54.398;10.126;2023-05-24T04:37:21;56.15;;;8.07;;
16967;SDS011;64862;54.398;10.126;2023-05-24T04:47:24;61.10;;;9.00;;
16967;SDS011;64862;54.398;10.126;2023-05-24T04:57:28;52.55;;;7.85;;
16967;SDS011;64862;54.398;10.126;2023-05-24T05:07:30;52.22;;;9.05;;
16967;SDS011;64862;54.398;10.126;2023-05-24T05:17:34;62.50;;;9.05;;
16967;SDS011;64862;54.398;10.126;2023-05-24T05:27:37;58.20;;;8.73;;
16967;SDS011;64862;54.398;10.126;2023-05-24T05:37:41;51.25;;;9.70;;
16967;SDS011;64862;54.398;10.126;2023-05-24T05:47:43;60.45;;;9.40;;
16967;SDS011;64862;54.398;10.126;2023-05-24T05:57:47;56.30;;;8.65;;
16967;SDS011;64862;54.398;10.126;2023-05-24T06:07:49;41.60;;;7.75;;
16967;SDS011;64862;54.398;10.126;2023-05-24T06:17:53;50.10;;;8.70;;
16967;SDS011;64862;54.398;10.126;2023-05-24T06:27:56;48.10;;;8.30;;
16967;SDS011;64862;54.398;10.126;2023-05-24T06:38:00;46.10;;;8.13;;
16967;SDS011;64862;54.398;10.126;2023-05-24T06:48:04;60.03;;;9.05;;
16967;SDS011;64862;54.398;10.126;2023-05-24T06:58:08;61.47;;;8.85;;
16967;SDS011;64862;54.398;10.126;2023-05-24T07:08:13;42.67;;;8.13;;
16967;SDS011;64862;54.398;10.126;2023-05-24T07:28:19;51.63;;;8.30;;
16967;SDS011;64862;54.398;10.126;2023-05-24T07:38:22;54.03;;;8.88;;
16967;SDS011;64862;54.398;10.126;2023-05-24T07:48:26;45.78;;;7.72;;
16967;SDS011;64862;54.398;10.126;2023-05-24T07:58:28;43.40;;;8.07;;
16967;SDS011;64862;54.398;10.126;2023-05-24T08:08:32;30.92;;;6.65;;
16967;SDS011;64862;54.398;10.126;2023-05-24T08:18:35;32.35;;;6.45;;
16967;SDS011;64862;54.398;10.126;2023-05-24T08:28:39;27.80;;;6.00;;
16967;SDS011;64862;54.398;10.126;2023-05-24T08:38:42;31.52;;;5.97;;
16967;SDS011;64862;54.398;10.126;2023-05-24T08:48:46;29.25;;;5.93;;
16967;SDS011;64862;54.398;10.126;2023-05-24T08:58:49;39.45;;;7.22;;
16967;SDS011;64862;54.398;10.126;2023-05-24T09:08:53;32.58;;;6.68;;
16967;SDS011;64862;54.398;10.126;2023-05-24T09:18:56;22.38;;;5.65;;
16967;SDS011;64862;54.398;10.126;2023-05-24T09:29:00;25.35;;;5.53;;
16967;SDS011;64862;54.398;10.126;2023-05-24T09:39:05;16.35;;;4.15;;
16967;SDS011;64862;54.398;10.126;2023-05-24T09:49:10;17.55;;;4.00;;
16967;SDS011;64862;54.398;10.126;2023-05-24T10:09:17;18.02;;;4.95;;
16967;SDS011;64862;54.398;10.126;2023-05-24T10:19:19;16.47;;;4.27;;
16967;SDS011;64862;54.398;10.126;2023-05-24T10:29:26;13.23;;;4.22;;
16967;SDS011;64862;54.398;10.126;2023-05-24T10:39:31;14.82;;;4.07;;
16967;SDS011;64862;54.398;10.126;2023-05-24T10:59:38;8.70;;;2.97;;
16967;SDS011;64862;54.398;10.126;2023-05-24T11:09:44;10.82;;;3.70;;
16967;SDS011;64862;54.398;10.126;2023-05-24T11:19:54;15.95;;;4.50;;
16967;SDS011;64862;54.398;10.126;2023-05-24T11:29:58;17.60;;;4.75;;
16967;SDS011;64862;54.398;10.126;2023-05-24T11:40:05;13.75;;;3.88;;
16967;SDS011;64862;54.398;10.126;2023-05-24T11:50:09;12.67;;;3.80;;
16967;SDS011;64862;54.398;10.126;2023-05-24T12:00:14;19.75;;;4.82;;
16967;SDS011;64862;54.398;10.126;2023-05-24T12:10:25;17.10;;;4.60;;
16967;SDS011;64862;54.398;10.126;2023-05-24T12:20:28;16.25;;;4.30;;
16967;SDS011;64862;54.398;10.126;2023-05-24T12:30:31;15.13;;;4.40;;
16967;SDS011;64862;54.398;10.126;2023-05-24T12:40:35;21.90;;;4.95;;
16967;SDS011;64862;54.398;10.126;2023-05-24T12:50:37;13.73;;;3.90;;
16967;SDS011;64862;54.398;10.126;2023-05-24T13:00:41;15.57;;;4.00;;
16967;SDS011;64862;54.398;10.126;2023-05-24T13:10:49;14.10;;;3.60;;
16967;SDS011;64862;54.398;10.126;2023-05-24T13:20:54;13.38;;;3.35;;
16967;SDS011;64862;54.398;10.126;2023-05-24T13:30:59;13.63;;;3.17;;
16967;SDS011;64862;54.398;10.126;2023-05-24T13:41:03;9.07;;;2.50;;
16967;SDS011;64862;54.398;10.126;2023-05-24T13:51:05;6.85;;;2.10;;
16967;SDS011;64862;54.398;10.126;2023-05-24T14:01:09;5.38;;;1.70;;
16967;SDS011;64862;54.398;10.126;2023-05-24T14:11:12;4.20;;;1.48;;
16967;SDS011;64862;54.398;10.126;2023-05-24T14:21:17;6.47;;;2.50;;
16967;SDS011;64862;54.398;10.126;2023-05-24T14:31:20;7.97;;;2.10;;
16967;SDS011;64862;54.398;10.126;2023-05-24T14:41:24;119.88;;;4.10;;
16967;SDS011;64862;54.398;10.126;2023-05-24T14:51:26;7.07;;;1.98;;
16967;SDS011;64862;54.398;10.126;2023-05-24T15:01:31;3.95;;;1.30;;
16967;SDS011;64862;54.398;10.126;2023-05-24T15:11:34;5.65;;;2.00;;
16967;SDS011;64862;54.398;10.126;2023-05-24T15:21:38;5.28;;;1.90;;
16967;SDS011;64862;54.398;10.126;2023-05-24T15:31:41;5.05;;;1.60;;
16967;SDS011;64862;54.398;10.126;2023-05-24T15:41:44;6.72;;;1.65;;
16967;SDS011;64862;54.398;10.126;2023-05-24T15:51:47;4.63;;;1.60;;
16967;SDS011;64862;54.398;10.126;2023-05-24T16:01:51;4.47;;;1.95;;
16967;SDS011;64862;54.398;10.126;2023-05-24T16:11:54;5.45;;;1.85;;
16967;SDS011;64862;54.398;10.126;2023-05-24T16:21:57;6.25;;;2.17;;
16967;SDS011;64862;54.398;10.126;2023-05-24T16:32:00;4.00;;;1.77;;
16967;SDS011;64862;54.398;10.126;2023-05-24T16:42:04;4.88;;;1.70;;
16967;SDS011;64862;54.398;10.126;2023-05-24T16:52:07;7.78;;;2.15;;
16967;SDS011;64862;54.398;10.126;2023-05-24T17:02:12;4.05;;;1.77;;
16967;SDS011;64862;54.398;10.126;2023-05-24T17:12:14;8.75;;;2.30;;
16967;SDS011;64862;54.398;10.126;2023-05-24T17:22:18;7.82;;;2.20;;
16967;SDS011;64862;54.398;10.126;2023-05-24T17:32:20;8.98;;;2.60;;
16967;SDS011;64862;54.398;10.126;2023-05-24T17:42:24;20.52;;;4.68;;
16967;SDS011;64862;54.398;10.126;2023-05-24T17:52:27;25.00;;;5.30;;
16967;SDS011;64862;54.398;10.126;2023-05-24T18:02:31;24.02;;;5.07;;
16967;SDS011;64862;54.398;10.126;2023-05-24T18:12:33;25.75;;;4.80;;
16967;SDS011;64862;54.398;10.126;2023-05-24T18:22:38;14.80;;;3.75;;
16967;SDS011;64862;54.398;10.126;2023-05-24T18:32:40;18.42;;;4.20;;
16967;SDS011;64862;54.398;10.126;2023-05-24T18:42:44;18.70;;;4.05;;
16967;SDS011;64862;54.398;10.126;2023-05-24T18:52:46;17.80;;;4.60;;
16967;SDS011;64862;54.398;10.126;2023-05-24T19:02:54;19.35;;;4.32;;
16967;SDS011;64862;54.398;10.126;2023-05-24T19:23:02;22.65;;;4.78;;
16967;SDS011;64862;54.398;10.126;2023-05-24T19:33:05;26.95;;;4.97;;
16967;SDS011;64862;54.398;10.126;2023-05-24T19:43:09;23.23;;;4.70;;
16967;SDS011;64862;54.398;10.126;2023-05-24T19:53:11;22.63;;;5.10;;
16967;SDS011;64862;54.398;10.126;2023-05-24T20:03:15;20.83;;;5.05;;
16967;SDS011;64862;54.398;10.126;2023-05-24T20:13:17;19.88;;;4.95;;
16967;SDS011;64862;54.398;10.126;2023-05-24T20:23:22;21.00;;;4.90;;
16967;SDS011;64862;54.398;10.126;2023-05-24T20:33:26;21.27;;;5.15;;
16967;SDS011;64862;54.398;10.126;2023-05-24T20:43:30;20.08;;;5.60;;
16967;SDS011;64862;54.398;10.126;2023-05-24T20:53:33;19.70;;;5.18;;
16967;SDS011;64862;54.398;10.126;2023-05-24T21:03:37;19.08;;;5.20;;
16967;SDS011;64862;54.398;10.126;2023-05-24T21:13:39;21.98;;;5.70;;
16967;SDS011;64862;54.398;10.126;2023-05-24T21:23:43;24.73;;;6.55;;
16967;SDS011;64862;54.398;10.126;2023-05-24T21:33:45;26.67;;;7.10;;
16967;SDS011;64862;54.398;10.126;2023-05-24T21:43:49;19.45;;;6.35;;
16967;SDS011;64862;54.398;10.126;2023-05-24T21:53:52;21.88;;;6.32;;
16967;SDS011;64862;54.398;10.126;2023-05-24T22:03:56;20.63;;;6.15;;
16967;SDS011;64862;54.398;10.126;2023-05-24T22:13:59;21.52;;;6.30;;
16967;SDS011;64862;54.398;10.126;2023-05-24T22:24:03;28.75;;;7.47;;
16967;SDS011;64862;54.398;10.126;2023-05-24T22:34:05;25.42;;;8.13;;
16967;SDS011;64862;54.398;10.126;2023-05-24T22:44:13;22.83;;;7.72;;
16967;SDS011;64862;54.398;10.126;2023-05-24T22:54:15;21.67;;;8.20;;
16967;SDS011;64862;54.398;10.126;2023-05-24T23:04:19;20.83;;;7.18;;
16967;SDS011;64862;54.398;10.126;2023-05-24T23:14:23;21.23;;;7.07;;
16967;SDS011;64862;54.398;10.126;2023-05-24T23:24:27;22.50;;;6.63;;
16967;SDS011;64862;54.398;10.126;2023-05-24T23:34:30;22.10;;;6.70;;
16967;SDS011;64862;54.398;10.126;2023-05-24T23:44:34;22.08;;;6.88;;
16967;SDS011;64862;54.398;10.126;2023-05-24T23:54:37;20.98;;;6.18;;
